KNIP/NIP METAR and TAF weather

Enter ICAO airport designator
Station Type Date Time Source
KNIP METAR 2019/08/25 17:53 UTC NOAA

KNIP 251753Z 03012KT 10SM SCT024 BKN250 31/23 A3000 RMK AO2 SLP154 60000 T03110228 10317 20267 58005


Station Type Date Time Source
KNIP Decoded METAR 2019/08/25 17:53 UTC NOAA

Station name not available
Aug 25, 2019 - 01:53 PM EDT / 2019.08.25 1753 UTC
Wind: from the NNE (030 degrees) at 14 MPH (12 KT):0
Visibility: 10 mile(s):0
Sky conditions: mostly cloudy
Temperature: 88.0 F (31.1 C)
Heat index: 95.5 F (35.3 C):1
Dew Point: 73.0 F (22.8 C)
Relative Humidity: 61%
Pressure (altimeter): 30 in. Hg (1015 hPa)
Pressure tendency: 0.01 inches (0.5 hPa) lower than three hours ago
ob: KNIP 251753Z 03012KT 10SM SCT024 BKN250 31/23 A3000 RMK AO2 SLP154 60000 T03110228 10317 20267 58005
cycle: 18

Station Type Date Time Source
KNIP TAF 2019/08/25 17:20 UTC NOAA

TAF
AMD KNIP 2517/2615 04014G22KT 9999 SCT010 BKN035 BKN150 QNH2994INS
BECMG 2520/2521 05012KT QNH2991INS
BECMG 2523/2601 SCT010 BKN050 BKN200 QNH2995INS
BECMG 2602/2603 03008KT QNH2993INS T32/2519Z T26/2609Z
AMD 1709 FN00197

Example: see airport list